• Join FlightAware (Why Join?)
  • Login
  • US Flag 
05:21AM EDT


 

Airport Tracker/Info


-or-


 

Live Flight TrackerFlight Track Log ✈ JZA7940 ✈ 23-Apr-2013 ✈ KMKE - CYYZ

Flight Track Log - Related Links

Times and Time Zones

All times are in EDT time to prevent confusion due to time zone crossing. See the JZA7940 flight status page for this flight to view local times or setup timezone preferences in your user account.

Time Position Orientation Groundspeed Altitude Reporting Facility
EDT Latitude Longitude Course Direction KTS MPH feet Rate Location/Type
08:15PM 42.9500 -87.8833 90° East 152 175 1,700  Level KMKE
08:16PM 42.9883 -87.8175 51° Northeast 227 261 5,200 2,580 Climbing Chicago Center
08:17PM 42.9928 -87.7125 87° East 269 310 8,100 2,700 Climbing Chicago Center
08:18PM 42.9961 -87.5928 88° East 305 351 10,900 2,700 Climbing Chicago Center
08:20PM 43.0442 -87.1003 90° East  Level Estimated
08:20PM 43.0006 -87.4642 87° East 331 381 13,700  Level Chicago Center
08:21PM 43.0086 -87.3400 85° East 352 405 15,900 2,340 Climbing Chicago Center
08:22PM 43.0317 -87.1678 80° East 385 443 18,600 2,340 Climbing Chicago Center
08:23PM 43.0508 -87.0222 80° East 391 450 20,700 1,800 Climbing Chicago Center
08:24PM 43.0689 -86.8683 81° East 407 468 22,300 1,500 Climbing Chicago Center
08:25PM 43.0897 -86.7089 80° East 423 487 23,900 1,500 Climbing Chicago Center
08:26PM 43.1089 -86.5461 81° East 432 497 25,500 1,440 Climbing Chicago Center
08:27PM 43.1297 -86.3781 80° East 445 512 26,900 1,320 Climbing Chicago Center
08:28PM 43.1508 -86.2053 80° East 453 521 28,300 1,200 Climbing Chicago Center
08:29PM 43.1711 -86.0275 81° East 460 529 29,500 1,200 Climbing Chicago Center
08:30PM 43.1814 -85.8089 86° East 467 537 30,800 1,020 Climbing Chicago Center
08:31PM 43.1903 -85.6283 86° East 471 542 31,600 840 Climbing Chicago Center
08:32PM 43.1992 -85.4456 86° East 479 551 32,600 660 Climbing Chicago Center
08:33PM 43.2075 -85.2642 86° East 477 549 33,000 180 Climbing Chicago Center
08:34PM 43.2161 -85.0811 86° East 482 555 33,000  Level Chicago Center
08:35PM 43.2239 -84.8997 87° East 478 550 33,000  Level Chicago Center
08:36PM 43.2281 -84.7178 88° East 473 544 33,000  Level Cleveland Center
08:37PM 43.2344 -84.5386 87° East 473 544 33,000 -60 Level Cleveland Center
08:38PM 43.2383 -84.3594 88° East 473 544 32,900 -600 Descending Cleveland Center
08:39PM 43.2439 -84.1831 87° East 473 544 31,900 -1,020 Descending Cleveland Center
08:40PM 43.2433 -84.0006 90° East 473 544 30,900 -1,020 Descending Cleveland Center
08:41PM 43.2461 -83.8267 89° East 473 544 29,900 -960 Descending Cleveland Center
08:42PM 43.2508 -83.6531 88° East 461 531 29,000 -480 Descending Cleveland Center
08:43PM 43.2511 -83.4819 90° East 455 524 29,000  Level Cleveland Center
08:44PM 43.2533 -83.3053 89° East 455 524 29,000  Level Cleveland Center
08:45PM 43.2533 -83.1258 90° East 461 531 29,000  Level Cleveland Center
08:46PM 43.2531 -82.9406 90° East 466 536 29,000  Level Cleveland Center
08:47PM 43.2547 -82.7494 89° East 484 557 29,000  Level Cleveland Center
08:48PM 43.2686 -82.5561 84° East 497 572 29,000  Level Cleveland Center
08:49PM 43.2822 -82.3569 85° East 507 583 29,000  Level Cleveland Center
08:50PM 43.2833 -82.1500 90° East 510 587 29,000 -420 Level Toronto Center
08:51PM 43.3000 -81.9500 83° East 480 552 28,200 -1,380 Descending Toronto Center
08:52PM 43.3167 -81.7833 82° East 460 529 26,300 -2,040 Descending Toronto Center
08:53PM 43.3333 -81.6000 83° East 450 518 24,200 -1,800 Descending Toronto Center
08:54PM 43.3333 -81.4500 90° East 440 506 22,800 -1,380 Descending Toronto Center
08:55PM 43.3500 -81.3000 81° East 420 483 21,500 -1,440 Descending Toronto Center
08:56PM 43.3667 -81.1167 83° East 420 483 20,000 -1,500 Descending Toronto Center
08:57PM 43.3833 -80.9833 80° East 400 460 18,600 -1,800 Descending Toronto Center
08:58PM 43.3833 -80.8333 90° East 390 449 16,500 -2,100 Descending Toronto Center
08:59PM 43.4167 -80.6833 73° East 380 437 14,500 -2,100 Descending Toronto Center
09:00PM 43.4333 -80.5667 79° East 360 414 12,400 -2,100 Descending Toronto Center
09:01PM 43.4500 -80.4333 80° East 340 391 10,400 -1,680 Descending Toronto Center
09:02PM 43.4500 -80.3167 90° East 310 357 9,100 -1,440 Descending Toronto Center
09:03PM 43.4833 -80.2000 68° East 280 322 7,600 -1,200 Descending Toronto Center
09:04PM 43.4833 -80.1167 90° East 270 311 6,800 -960 Descending Toronto Center
09:05PM 43.4833 -80.0167 90° East 250 288 5,700 -1,080 Descending Toronto Center
09:06PM 43.4833 -79.9333 90° East 250 288 4,700 -1,020 Descending Toronto Center
09:07PM 43.5000 -79.8333 77° East 230 265 3,700 -900 Descending Toronto Center
09:08PM 43.5333 -79.7667 55° Northeast 230 265 3,000 -420 Descending Toronto Center
09:09PM 43.5667 -79.7167 47° Northeast 200 230 2,900 -120 Descending Toronto Center